createdAt,value
2023-01-12T00:00:21.389Z,0.00
2023-01-12T00:01:21.324Z,0.00
2023-01-12T00:02:22.381Z,0.00
2023-01-12T00:03:22.307Z,0.00
2023-01-12T00:04:22.361Z,0.00
2023-01-12T00:05:22.290Z,0.00
2023-01-12T00:06:21.275Z,0.00
2023-01-12T00:07:21.260Z,0.00
2023-01-12T00:08:21.237Z,0.00
2023-01-12T00:09:22.229Z,0.00
2023-01-12T00:10:22.244Z,0.00
2023-01-12T00:11:21.228Z,0.00
2023-01-12T00:12:21.225Z,0.00
2023-01-12T00:13:21.174Z,0.00
2023-01-12T00:14:21.173Z,0.00
2023-01-12T00:15:22.186Z,0.00
2023-01-12T00:16:21.183Z,0.00
2023-01-12T00:17:21.149Z,0.00
2023-01-12T00:18:22.305Z,0.00
2023-01-12T00:19:21.112Z,0.00
2023-01-12T00:20:21.126Z,0.00
2023-01-12T00:21:21.111Z,0.00
2023-01-12T00:22:21.105Z,0.00
2023-01-12T00:23:21.075Z,0.00
2023-01-12T00:24:22.059Z,0.00
2023-01-12T00:25:21.068Z,0.00
2023-01-12T00:26:22.099Z,0.00
2023-01-12T00:27:21.042Z,0.00
2023-01-12T00:28:21.069Z,0.00
2023-01-12T00:29:22.089Z,0.00
2023-01-12T00:30:21.047Z,0.00
2023-01-12T00:31:21.174Z,0.00
2023-01-12T00:32:21.039Z,0.00
2023-01-12T00:33:21.961Z,0.00
2023-01-12T00:34:20.981Z,0.00
2023-01-12T00:35:20.969Z,0.00
2023-01-12T00:36:20.939Z,0.00
2023-01-12T00:37:20.987Z,0.00
2023-01-12T00:38:20.912Z,0.00
2023-01-12T00:39:21.912Z,0.00
2023-01-12T00:40:20.926Z,0.00
2023-01-12T00:41:21.889Z,0.00
2023-01-12T00:42:20.882Z,0.00
2023-01-12T00:43:20.898Z,0.00
2023-01-12T00:44:20.875Z,0.00
2023-01-12T00:45:20.819Z,0.00
2023-01-12T00:46:21.051Z,0.00
2023-01-12T00:47:21.817Z,0.00
2023-01-12T00:48:20.806Z,0.00
2023-01-12T00:49:20.795Z,0.00
2023-01-12T00:50:20.787Z,0.00
2023-01-12T00:51:20.860Z,0.00
2023-01-12T00:52:30.469Z,0.00
2023-01-12T00:53:21.764Z,0.00
2023-01-12T00:54:20.740Z,0.00
2023-01-12T00:55:20.798Z,0.00
2023-01-12T00:56:20.750Z,0.00
2023-01-12T00:57:21.714Z,0.00
2023-01-12T00:58:21.684Z,0.00
2023-01-12T00:59:20.679Z,0.00
2023-01-12T01:00:20.686Z,0.00
2023-01-12T01:01:20.736Z,0.00
2023-01-12T01:02:20.787Z,0.00
2023-01-12T01:03:20.630Z,0.00
2023-01-12T01:04:20.679Z,0.00
2023-01-12T01:05:20.683Z,0.00
2023-01-12T01:06:20.607Z,0.00
2023-01-12T01:07:20.627Z,0.00
2023-01-12T01:08:20.577Z,0.00
2023-01-12T01:09:21.615Z,0.00
2023-01-12T01:10:20.593Z,0.00
2023-01-12T01:11:20.562Z,0.00
2023-01-12T01:12:20.533Z,0.00
2023-01-12T01:13:20.533Z,0.00
2023-01-12T01:14:21.534Z,0.00
2023-01-12T01:15:20.522Z,0.00
2023-01-12T01:16:20.589Z,0.00
2023-01-12T01:17:20.540Z,0.00
2023-01-12T01:18:20.536Z,0.00
2023-01-12T01:19:20.981Z,0.00
2023-01-12T01:20:21.474Z,0.00
2023-01-12T01:21:21.477Z,0.00
2023-01-12T01:22:20.521Z,0.00
2023-01-12T01:23:20.612Z,0.00
2023-01-12T01:24:20.438Z,0.00
2023-01-12T01:25:20.419Z,0.00
2023-01-12T01:26:20.384Z,0.00
2023-01-12T01:27:20.401Z,0.00
2023-01-12T01:28:20.391Z,0.00
2023-01-12T01:29:20.418Z,0.00
2023-01-12T01:30:21.048Z,0.00
2023-01-12T01:31:20.511Z,0.00
2023-01-12T01:32:20.344Z,0.00
2023-01-12T01:33:20.322Z,0.00
2023-01-12T01:34:20.339Z,0.00
2023-01-12T01:35:20.298Z,0.00
2023-01-12T01:36:20.302Z,0.00
2023-01-12T01:37:20.317Z,0.00
2023-01-12T01:38:20.323Z,0.00
2023-01-12T01:39:20.281Z,0.00
2023-01-12T01:40:20.216Z,0.00
2023-01-12T01:41:20.264Z,0.00
2023-01-12T01:42:20.224Z,0.00
2023-01-12T01:43:20.229Z,0.00
2023-01-12T01:44:20.241Z,0.00
2023-01-12T01:45:20.204Z,0.00
2023-01-12T01:46:20.233Z,0.00
2023-01-12T01:47:20.318Z,0.00
2023-01-12T01:48:20.173Z,0.00
2023-01-12T01:49:21.150Z,0.00
2023-01-12T01:50:20.121Z,0.00
2023-01-12T01:51:20.206Z,0.00
2023-01-12T01:52:20.113Z,0.00
2023-01-12T01:53:20.174Z,0.00
2023-01-12T01:54:20.113Z,0.00
2023-01-12T01:55:20.088Z,0.00
2023-01-12T01:56:20.100Z,0.00
2023-01-12T01:57:20.072Z,0.00
2023-01-12T01:58:20.053Z,0.00
2023-01-12T01:59:21.067Z,0.00
2023-01-12T02:00:20.128Z,0.00
2023-01-12T02:01:20.118Z,0.00
2023-01-12T02:02:20.146Z,0.00
2023-01-12T02:03:19.982Z,0.00
2023-01-12T02:04:20.024Z,0.00
2023-01-12T02:05:20.024Z,0.00
2023-01-12T02:06:20.980Z,0.00
2023-01-12T02:07:19.966Z,0.00
2023-01-12T02:08:19.965Z,0.00
2023-01-12T02:09:19.957Z,0.00
2023-01-12T02:10:20.045Z,0.00
2023-01-12T02:11:19.878Z,0.00
2023-01-12T02:12:19.863Z,0.00
2023-01-12T02:13:19.907Z,0.00
2023-01-12T02:14:19.871Z,0.00
2023-01-12T02:15:19.910Z,0.00
2023-01-12T02:16:19.982Z,0.00
2023-01-12T02:17:20.846Z,0.00
2023-01-12T02:18:19.812Z,0.00
2023-01-12T02:19:19.817Z,0.00
2023-01-12T02:20:19.822Z,0.00
2023-01-12T02:21:19.772Z,0.00
2023-01-12T02:22:19.855Z,0.00
2023-01-12T02:23:19.839Z,0.00
2023-01-12T02:24:19.741Z,0.00
2023-01-12T02:25:19.800Z,0.00
2023-01-12T02:26:19.787Z,0.00
2023-01-12T02:27:19.786Z,0.00
2023-01-12T02:28:19.700Z,0.00
2023-01-12T02:29:20.690Z,0.00
2023-01-12T02:30:19.686Z,0.00
2023-01-12T02:31:20.787Z,0.00
2023-01-12T02:32:19.685Z,0.00
2023-01-12T02:33:19.707Z,0.00
2023-01-12T02:34:19.722Z,0.00
2023-01-12T02:35:19.766Z,0.00
2023-01-12T02:36:19.628Z,0.00
2023-01-12T02:37:19.620Z,0.00
2023-01-12T02:38:19.611Z,0.00
2023-01-12T02:39:20.575Z,0.00
2023-01-12T02:40:19.561Z,0.00
2023-01-12T02:41:19.569Z,0.00
2023-01-12T02:42:19.550Z,0.00
2023-01-12T02:43:19.667Z,0.00
2023-01-12T02:44:19.570Z,0.00
2023-01-12T02:45:20.522Z,0.00
2023-01-12T02:46:20.553Z,0.00
2023-01-12T02:47:19.488Z,0.00
2023-01-12T02:48:19.548Z,0.00
2023-01-12T02:49:19.544Z,0.00
2023-01-12T02:50:20.459Z,0.00
2023-01-12T02:51:19.438Z,0.00
2023-01-12T02:52:20.499Z,0.00
2023-01-12T02:53:19.460Z,0.00
2023-01-12T02:54:19.528Z,0.00
2023-01-12T02:55:19.500Z,0.00
2023-01-12T02:56:19.385Z,0.00
2023-01-12T02:57:19.371Z,0.00
2023-01-12T02:58:20.388Z,0.00
2023-01-12T02:59:20.391Z,0.00
2023-01-12T03:00:19.389Z,0.00
2023-01-12T03:01:19.581Z,0.00
2023-01-12T03:02:19.342Z,0.00
2023-01-12T03:03:19.381Z,0.00
2023-01-12T03:04:19.380Z,0.00
2023-01-12T03:05:19.604Z,0.00
2023-01-12T03:06:19.307Z,0.00
2023-01-12T03:07:19.303Z,0.00
2023-01-12T03:08:19.388Z,0.00
2023-01-12T03:09:19.274Z,0.00
2023-01-12T03:10:19.272Z,0.00
2023-01-12T03:11:19.234Z,0.00
2023-01-12T03:12:19.335Z,0.00
2023-01-12T03:13:19.240Z,0.00
2023-01-12T03:14:19.254Z,0.00
2023-01-12T03:15:19.252Z,0.00
2023-01-12T03:16:19.405Z,0.00
2023-01-12T03:17:19.263Z,0.00
2023-01-12T03:18:20.157Z,0.00
2023-01-12T03:19:19.188Z,0.00
2023-01-12T03:20:19.190Z,0.00
2023-01-12T03:21:19.216Z,0.00
2023-01-12T03:22:20.404Z,0.00
2023-01-12T03:23:19.100Z,0.00
2023-01-12T03:24:20.124Z,0.00
2023-01-12T03:25:19.115Z,0.00
2023-01-12T03:26:19.053Z,0.00
2023-01-12T03:27:19.075Z,0.00
2023-01-12T03:28:19.073Z,0.00
2023-01-12T03:29:19.067Z,0.00
2023-01-12T03:30:19.061Z,0.00
2023-01-12T03:31:19.075Z,0.00
2023-01-12T03:32:20.026Z,0.00
2023-01-12T03:33:19.042Z,0.00
2023-01-12T03:34:19.097Z,0.00
2023-01-12T03:35:18.991Z,0.00
2023-01-12T03:36:18.980Z,0.00
2023-01-12T03:37:19.010Z,0.00
2023-01-12T03:38:18.966Z,0.00
2023-01-12T03:39:19.008Z,0.00
2023-01-12T03:40:19.008Z,0.00
2023-01-12T03:41:18.911Z,0.00
2023-01-12T03:42:18.917Z,0.00
2023-01-12T03:43:18.919Z,0.00
2023-01-12T03:44:18.945Z,0.00
2023-01-12T03:45:18.854Z,0.00
2023-01-12T03:46:18.851Z,0.00
2023-01-12T03:47:18.868Z,0.00
2023-01-12T03:48:18.830Z,0.00
2023-01-12T03:49:18.891Z,0.00
2023-01-12T03:50:18.889Z,0.00
2023-01-12T03:51:18.781Z,0.00
2023-01-12T03:52:19.828Z,0.00
2023-01-12T03:53:18.806Z,0.00
2023-01-12T03:54:18.801Z,0.00
2023-01-12T03:55:18.810Z,0.00
2023-01-12T03:56:18.764Z,0.00
2023-01-12T03:57:18.766Z,0.00
2023-01-12T03:58:18.900Z,0.00
2023-01-12T03:59:18.724Z,0.00
2023-01-12T04:00:18.749Z,0.00
2023-01-12T04:01:18.856Z,0.00
2023-01-12T04:02:18.765Z,0.00
2023-01-12T04:03:19.857Z,0.00
2023-01-12T04:04:18.683Z,0.00
2023-01-12T04:05:18.635Z,0.00
2023-01-12T04:06:18.645Z,0.00
2023-01-12T04:07:18.618Z,0.00
2023-01-12T04:08:18.624Z,0.00
2023-01-12T04:09:18.591Z,0.00
2023-01-12T04:10:18.735Z,0.00
2023-01-12T04:11:18.579Z,0.00
2023-01-12T04:12:18.629Z,0.00
2023-01-12T04:13:18.548Z,0.00
2023-01-12T04:14:18.595Z,0.00
2023-01-12T04:15:18.533Z,0.00
2023-01-12T04:16:18.586Z,0.00
2023-01-12T04:17:18.536Z,0.00
2023-01-12T04:18:18.514Z,0.00
2023-01-12T04:19:18.499Z,0.00
2023-01-12T04:20:18.478Z,0.00
2023-01-12T04:21:18.469Z,0.00
2023-01-12T04:22:18.485Z,0.00
2023-01-12T04:23:18.501Z,0.00
2023-01-12T04:24:18.443Z,0.00
2023-01-12T04:25:18.434Z,0.00
2023-01-12T04:26:18.426Z,0.00
2023-01-12T04:27:18.394Z,0.00
2023-01-12T04:28:19.409Z,0.00
2023-01-12T04:29:18.396Z,0.00
2023-01-12T04:30:18.383Z,0.00
2023-01-12T04:31:18.429Z,0.00
2023-01-12T04:32:18.345Z,0.00
2023-01-12T04:33:18.333Z,0.00
2023-01-12T04:34:18.361Z,0.00
2023-01-12T04:35:18.357Z,0.00
2023-01-12T04:36:18.326Z,0.00
2023-01-12T04:37:18.310Z,0.00
2023-01-12T04:38:18.271Z,0.00
2023-01-12T04:39:25.993Z,0.00
2023-01-12T04:40:18.248Z,0.00
2023-01-12T04:41:19.264Z,0.00
2023-01-12T04:42:19.269Z,0.00
2023-01-12T04:43:19.235Z,0.00
2023-01-12T04:44:18.255Z,0.00
2023-01-12T04:45:18.227Z,0.00
2023-01-12T04:46:18.267Z,0.00
2023-01-12T04:47:18.190Z,0.00
2023-01-12T04:48:18.218Z,0.00
2023-01-12T04:49:18.211Z,0.00
2023-01-12T04:50:19.165Z,0.00
2023-01-12T04:51:18.139Z,0.00
2023-01-12T04:52:18.128Z,0.00
2023-01-12T04:53:18.210Z,0.00
2023-01-12T04:54:18.119Z,0.00
2023-01-12T04:55:19.108Z,0.00
2023-01-12T04:56:18.105Z,0.00
2023-01-12T04:57:18.090Z,0.00
2023-01-12T04:58:18.128Z,0.00
2023-01-12T04:59:18.066Z,0.00
2023-01-12T05:00:19.061Z,0.00
2023-01-12T05:01:18.280Z,0.00
2023-01-12T05:02:18.020Z,0.00
2023-01-12T05:03:18.040Z,0.00
2023-01-12T05:04:18.014Z,0.00
2023-01-12T05:05:17.989Z,0.00
2023-01-12T05:06:17.995Z,0.00
2023-01-12T05:07:17.971Z,0.00
2023-01-12T05:08:17.972Z,0.00
2023-01-12T05:09:19.989Z,0.00
2023-01-12T05:10:17.922Z,0.00
2023-01-12T05:11:17.941Z,0.00
2023-01-12T05:12:17.901Z,0.00
2023-01-12T05:13:17.904Z,0.00
2023-01-12T05:14:17.909Z,0.00
2023-01-12T05:15:17.909Z,0.00
2023-01-12T05:16:17.925Z,0.00
2023-01-12T05:17:17.870Z,0.00
2023-01-12T05:18:17.852Z,0.00
2023-01-12T05:19:18.858Z,0.00
2023-01-12T05:20:18.454Z,0.00
2023-01-12T05:21:17.816Z,0.00
2023-01-12T05:22:17.791Z,0.00
2023-01-12T05:23:17.799Z,0.00
2023-01-12T05:24:18.835Z,0.00
2023-01-12T05:25:17.784Z,0.00
2023-01-12T05:26:17.775Z,0.00
2023-01-12T05:27:17.786Z,0.00
2023-01-12T05:28:18.735Z,0.00
2023-01-12T05:29:17.746Z,0.00
2023-01-12T05:30:17.728Z,0.00
2023-01-12T05:31:17.718Z,0.00
2023-01-12T05:32:17.797Z,0.00
2023-01-12T05:33:17.727Z,0.00
2023-01-12T05:34:17.660Z,0.00
2023-01-12T05:35:18.663Z,0.00
2023-01-12T05:36:17.658Z,0.00
2023-01-12T05:37:18.635Z,0.00
2023-01-12T05:38:17.657Z,0.00
2023-01-12T05:39:17.678Z,0.00
2023-01-12T05:40:17.604Z,0.00
2023-01-12T05:41:17.600Z,0.00
2023-01-12T05:42:17.619Z,0.00
2023-01-12T05:43:17.590Z,0.00
2023-01-12T05:44:17.576Z,0.00
2023-01-12T05:45:17.561Z,0.00
2023-01-12T05:46:17.585Z,0.00
2023-01-12T05:47:17.560Z,0.00
2023-01-12T05:48:17.539Z,0.00
2023-01-12T05:49:17.517Z,0.00
2023-01-12T05:50:18.501Z,0.00
2023-01-12T05:51:17.479Z,0.00
2023-01-12T05:52:17.483Z,0.00
2023-01-12T05:53:17.470Z,0.00
2023-01-12T05:54:17.499Z,0.00
2023-01-12T05:55:17.453Z,0.00
2023-01-12T05:56:17.429Z,0.00
2023-01-12T05:57:17.417Z,0.00
2023-01-12T05:58:17.398Z,0.00
2023-01-12T05:59:18.415Z,0.00
2023-01-12T06:00:17.454Z,0.00
2023-01-12T06:01:17.409Z,0.00
2023-01-12T06:02:17.456Z,0.00
2023-01-12T06:03:17.360Z,0.00
2023-01-12T06:04:18.469Z,0.00
2023-01-12T06:05:17.343Z,0.00
2023-01-12T06:06:17.338Z,0.00
2023-01-12T06:07:17.340Z,0.00
2023-01-12T06:08:17.330Z,0.00
2023-01-12T06:09:17.290Z,0.00
2023-01-12T06:10:17.499Z,0.00
2023-01-12T06:11:17.276Z,0.00
2023-01-12T06:12:17.261Z,0.00
2023-01-12T06:13:17.264Z,0.00
2023-01-12T06:14:18.365Z,0.00
2023-01-12T06:15:17.209Z,0.00
2023-01-12T06:16:18.314Z,0.00
2023-01-12T06:17:18.234Z,0.00
2023-01-12T06:18:17.216Z,0.00
2023-01-12T06:19:17.263Z,0.00
2023-01-12T06:20:17.207Z,0.00
2023-01-12T06:21:17.209Z,0.00
2023-01-12T06:22:17.172Z,0.00
2023-01-12T06:23:18.149Z,0.00
2023-01-12T06:24:17.167Z,0.00
2023-01-12T06:25:17.270Z,0.00
2023-01-12T06:26:17.109Z,0.00
2023-01-12T06:27:17.120Z,0.00
2023-01-12T06:28:17.090Z,0.00
2023-01-12T06:29:17.071Z,0.00
2023-01-12T06:30:17.069Z,0.00
2023-01-12T06:31:17.107Z,0.00
2023-01-12T06:32:17.184Z,0.00
2023-01-12T06:33:17.023Z,0.00
2023-01-12T06:34:17.022Z,0.00
2023-01-12T06:35:19.649Z,0.00
2023-01-12T06:36:18.018Z,0.00
2023-01-12T06:37:16.996Z,0.00
2023-01-12T06:38:18.961Z,0.00
2023-01-12T06:39:16.966Z,0.00
2023-01-12T06:40:16.961Z,0.00
2023-01-12T06:41:16.959Z,0.00
2023-01-12T06:42:16.939Z,0.00
2023-01-12T06:43:16.991Z,0.00
2023-01-12T06:44:16.991Z,0.00
2023-01-12T06:45:18.021Z,0.00
2023-01-12T06:46:17.017Z,0.00
2023-01-12T06:47:16.880Z,0.00
2023-01-12T06:48:17.857Z,0.00
2023-01-12T06:49:16.846Z,0.00
2023-01-12T06:50:16.903Z,0.00
2023-01-12T06:51:17.830Z,0.00
2023-01-12T06:52:17.875Z,0.00
2023-01-12T06:53:16.877Z,4.00
2023-01-12T06:54:18.481Z,4.00
2023-01-12T06:55:16.859Z,4.00
2023-01-12T06:56:17.822Z,0.00
2023-01-12T06:57:16.775Z,0.00
2023-01-12T06:58:17.907Z,0.00
2023-01-12T06:59:16.921Z,4.00
2023-01-12T07:00:16.874Z,4.00
2023-01-12T07:01:17.933Z,4.00
2023-01-12T07:02:16.793Z,4.00
2023-01-12T07:03:16.748Z,4.00
2023-01-12T07:04:16.770Z,4.00
2023-01-12T07:05:16.801Z,4.00
2023-01-12T07:06:16.707Z,4.00
2023-01-12T07:07:16.753Z,4.00
2023-01-12T07:08:16.850Z,4.00
2023-01-12T07:09:16.625Z,4.00
2023-01-12T07:10:17.673Z,4.00
2023-01-12T07:11:16.702Z,8.00
2023-01-12T07:12:17.785Z,4.00
2023-01-12T07:13:16.600Z,8.00
2023-01-12T07:14:16.761Z,8.00
2023-01-12T07:15:17.670Z,8.00
2023-01-12T07:16:16.665Z,12.00
2023-01-12T07:17:16.663Z,12.00
2023-01-12T07:18:16.527Z,12.00
2023-01-12T07:19:16.644Z,12.00
2023-01-12T07:20:16.514Z,16.00
2023-01-12T07:21:16.620Z,12.00
2023-01-12T07:22:17.577Z,16.00
2023-01-12T07:23:16.555Z,16.00
2023-01-12T07:24:16.504Z,16.00
2023-01-12T07:25:16.565Z,16.00
2023-01-12T07:26:16.636Z,20.00
2023-01-12T07:27:16.454Z,20.00
2023-01-12T07:28:16.438Z,24.00
2023-01-12T07:29:16.473Z,24.00
2023-01-12T07:30:16.503Z,24.00
2023-01-12T07:31:16.557Z,24.00
2023-01-12T07:32:17.489Z,24.00
2023-01-12T07:33:18.580Z,24.00
2023-01-12T07:34:16.371Z,24.00
2023-01-12T07:35:16.400Z,24.00
2023-01-12T07:36:16.335Z,24.00
2023-01-12T07:37:16.396Z,24.00
2023-01-12T07:38:16.313Z,20.00
2023-01-12T07:39:16.343Z,20.00
2023-01-12T07:40:16.349Z,24.00
2023-01-12T07:41:16.278Z,24.00
2023-01-12T07:42:16.271Z,24.00
2023-01-12T07:43:16.271Z,24.00
2023-01-12T07:44:16.298Z,28.00
2023-01-12T07:45:16.266Z,24.00
2023-01-12T07:46:16.285Z,28.00
2023-01-12T07:47:16.215Z,28.00
2023-01-12T07:48:16.204Z,32.00
2023-01-12T07:49:16.233Z,36.00
2023-01-12T07:50:16.176Z,36.00
2023-01-12T07:51:16.201Z,36.00
2023-01-12T07:52:16.334Z,40.00
2023-01-12T07:53:17.151Z,40.00
2023-01-12T07:54:16.192Z,40.00
2023-01-12T07:55:16.252Z,40.00
2023-01-12T07:56:16.139Z,40.00
2023-01-12T07:57:16.116Z,40.00
2023-01-12T07:58:16.140Z,40.00
2023-01-12T07:59:17.116Z,44.00
2023-01-12T08:00:16.056Z,40.00
2023-01-12T08:01:17.137Z,40.00
2023-01-12T08:02:16.114Z,44.00
2023-01-12T08:03:16.042Z,48.00
2023-01-12T08:04:16.018Z,48.00
2023-01-12T08:05:16.074Z,48.00
2023-01-12T08:06:16.021Z,48.00
2023-01-12T08:07:17.133Z,52.00
2023-01-12T08:08:16.000Z,48.00
2023-01-12T08:09:17.030Z,52.00
2023-01-12T08:10:15.970Z,52.00
2023-01-12T08:11:15.955Z,56.00
2023-01-12T08:12:16.034Z,56.00
2023-01-12T08:13:16.049Z,60.00
2023-01-12T08:14:15.915Z,64.00
2023-01-12T08:15:15.928Z,68.00
2023-01-12T08:16:16.927Z,72.00
2023-01-12T08:17:16.918Z,72.00
2023-01-12T08:18:15.892Z,72.00
2023-01-12T08:19:15.911Z,68.00
2023-01-12T08:20:15.862Z,64.00
2023-01-12T08:21:15.858Z,60.00
2023-01-12T08:22:15.865Z,64.00
2023-01-12T08:23:15.840Z,60.00
2023-01-12T08:24:15.824Z,60.00
2023-01-12T08:25:15.829Z,64.00
2023-01-12T08:26:15.830Z,60.00
2023-01-12T08:27:15.792Z,64.00
2023-01-12T08:28:15.839Z,64.00
2023-01-12T08:29:15.740Z,64.00
2023-01-12T08:30:15.749Z,64.00
2023-01-12T08:31:15.773Z,68.00
2023-01-12T08:32:15.721Z,64.00
2023-01-12T08:33:16.722Z,68.00
2023-01-12T08:34:15.694Z,68.00
2023-01-12T08:35:15.671Z,60.00
2023-01-12T08:36:15.718Z,60.00
2023-01-12T08:37:15.655Z,60.00
2023-01-12T08:38:16.654Z,60.00
2023-01-12T08:39:15.662Z,56.00
2023-01-12T08:40:15.645Z,60.00
2023-01-12T08:41:15.618Z,60.00
2023-01-12T08:42:15.644Z,64.00
2023-01-12T08:43:15.597Z,68.00
2023-01-12T08:44:15.633Z,72.00
2023-01-12T08:45:15.607Z,76.00
2023-01-12T08:46:15.645Z,80.00
2023-01-12T08:47:15.547Z,80.00
2023-01-12T08:48:15.528Z,88.00
2023-01-12T08:49:16.802Z,88.00
2023-01-12T08:50:15.523Z,88.00
2023-01-12T08:51:15.509Z,88.00
2023-01-12T08:52:15.502Z,88.00
2023-01-12T08:53:16.476Z,88.00
2023-01-12T08:54:15.496Z,84.00
2023-01-12T08:55:15.485Z,88.00
2023-01-12T08:56:15.488Z,88.00
2023-01-12T08:57:16.447Z,88.00
2023-01-12T08:58:15.434Z,88.00
2023-01-12T08:59:15.423Z,88.00
2023-01-12T09:00:15.425Z,92.00
2023-01-12T09:01:15.601Z,96.00
2023-01-12T09:02:16.532Z,96.00
2023-01-12T09:03:23.007Z,104.00
2023-01-12T09:04:15.359Z,104.00
2023-01-12T09:05:16.376Z,108.00
2023-01-12T09:06:15.344Z,108.00
2023-01-12T09:07:15.350Z,108.00
2023-01-12T09:08:15.343Z,112.00
2023-01-12T09:09:15.315Z,116.00
2023-01-12T09:10:16.284Z,116.00
2023-01-12T09:11:15.293Z,116.00
2023-01-12T09:12:15.296Z,116.00
2023-01-12T09:13:16.264Z,120.00
2023-01-12T09:14:15.275Z,124.00
2023-01-12T09:15:15.233Z,124.00
2023-01-12T09:16:15.337Z,128.00
2023-01-12T09:17:15.211Z,132.00
2023-01-12T09:18:15.251Z,140.00
2023-01-12T09:19:15.214Z,144.00
2023-01-12T09:20:15.177Z,148.00
2023-01-12T09:21:15.166Z,152.00
2023-01-12T09:22:15.201Z,160.00
2023-01-12T09:23:15.148Z,172.00
2023-01-12T09:24:15.148Z,184.00
2023-01-12T09:25:16.177Z,192.00
2023-01-12T09:26:15.124Z,200.00
2023-01-12T09:27:15.109Z,204.00
2023-01-12T09:28:15.111Z,208.00
2023-01-12T09:29:15.140Z,220.00
2023-01-12T09:30:15.100Z,224.00
2023-01-12T09:31:18.581Z,240.00
2023-01-12T09:32:18.531Z,248.00
2023-01-12T09:33:15.045Z,260.00
2023-01-12T09:34:15.074Z,268.00
2023-01-12T09:35:15.022Z,280.00
2023-01-12T09:36:15.031Z,284.00
2023-01-12T09:37:14.990Z,288.00
2023-01-12T09:38:14.987Z,288.00
2023-01-12T09:39:26.210Z,284.00
2023-01-12T09:40:16.851Z,284.00
2023-01-12T09:41:14.963Z,284.00
2023-01-12T09:42:14.973Z,280.00
2023-01-12T09:43:14.932Z,284.00
2023-01-12T09:44:15.910Z,288.00
2023-01-12T09:45:14.919Z,288.00
2023-01-12T09:46:14.924Z,296.00
2023-01-12T09:47:14.892Z,300.00
2023-01-12T09:48:15.889Z,304.00
2023-01-12T09:49:14.891Z,304.00
2023-01-12T09:50:14.850Z,296.00
2023-01-12T09:51:14.855Z,292.00
2023-01-12T09:52:15.844Z,292.00
2023-01-12T09:53:14.827Z,288.00
2023-01-12T09:54:14.832Z,280.00
2023-01-12T09:55:14.852Z,280.00
2023-01-12T09:56:14.792Z,280.00
2023-01-12T09:57:24.429Z,276.00
2023-01-12T09:58:15.780Z,276.00
2023-01-12T09:59:18.380Z,264.00
2023-01-12T10:00:14.745Z,256.00
2023-01-12T10:01:28.168Z,248.00
2023-01-12T10:02:15.817Z,248.00
2023-01-12T10:03:14.789Z,248.00
2023-01-12T10:04:15.755Z,248.00
2023-01-12T10:05:14.702Z,248.00
2023-01-12T10:06:14.677Z,240.00
2023-01-12T10:07:14.734Z,236.00
2023-01-12T10:08:14.662Z,232.00
2023-01-12T10:09:14.635Z,240.00
2023-01-12T10:10:14.665Z,240.00
2023-01-12T10:11:14.642Z,240.00
2023-01-12T10:12:14.644Z,236.00
2023-01-12T10:13:14.612Z,232.00
2023-01-12T10:14:14.614Z,228.00
2023-01-12T10:15:14.564Z,228.00
2023-01-12T10:16:14.650Z,232.00
2023-01-12T10:17:15.566Z,228.00
2023-01-12T10:18:14.542Z,236.00
2023-01-12T10:19:14.559Z,236.00
2023-01-12T10:20:16.330Z,240.00
2023-01-12T10:21:14.511Z,240.00
2023-01-12T10:22:14.499Z,244.00
2023-01-12T10:23:14.475Z,240.00
2023-01-12T10:24:14.467Z,224.00
2023-01-12T10:25:15.488Z,204.00
2023-01-12T10:26:14.447Z,196.00
2023-01-12T10:27:14.454Z,188.00
2023-01-12T10:28:15.478Z,184.00
2023-01-12T10:29:14.411Z,172.00
2023-01-12T10:30:14.429Z,164.00
2023-01-12T10:31:14.464Z,156.00
2023-01-12T10:32:14.372Z,148.00
2023-01-12T10:33:14.376Z,140.00
2023-01-12T10:34:14.378Z,144.00
2023-01-12T10:35:14.355Z,152.00
2023-01-12T10:36:14.346Z,148.00
2023-01-12T10:37:14.338Z,140.00
2023-01-12T10:38:14.364Z,132.00
2023-01-12T10:39:15.297Z,136.00
2023-01-12T10:40:15.298Z,128.00
2023-01-12T10:41:14.299Z,128.00
2023-01-12T10:42:15.277Z,124.00
2023-01-12T10:43:19.593Z,128.00
2023-01-12T10:44:15.284Z,128.00
2023-01-12T10:45:14.265Z,128.00
2023-01-12T10:46:14.306Z,120.00
2023-01-12T10:47:14.237Z,116.00
2023-01-12T10:48:14.226Z,120.00
2023-01-12T10:49:14.207Z,128.00
2023-01-12T10:50:14.210Z,120.00
2023-01-12T10:51:14.187Z,112.00
2023-01-12T10:52:14.275Z,104.00
2023-01-12T10:53:14.166Z,104.00
2023-01-12T10:54:15.137Z,112.00
2023-01-12T10:55:14.117Z,108.00
2023-01-12T10:56:14.119Z,96.00
2023-01-12T10:57:14.113Z,96.00
2023-01-12T10:58:14.134Z,92.00
2023-01-12T10:59:14.091Z,84.00
2023-01-12T11:00:15.074Z,88.00
2023-01-12T11:01:15.205Z,92.00
2023-01-12T11:02:15.398Z,96.00
2023-01-12T11:03:14.054Z,92.00
2023-01-12T11:04:15.017Z,92.00
2023-01-12T11:05:14.019Z,84.00
2023-01-12T11:06:15.002Z,80.00
2023-01-12T11:07:13.990Z,76.00
2023-01-12T11:08:14.029Z,72.00
2023-01-12T11:09:13.998Z,68.00
2023-01-12T11:10:14.001Z,68.00
2023-01-12T11:11:14.961Z,72.00
2023-01-12T11:12:14.943Z,80.00
2023-01-12T11:13:13.928Z,80.00
2023-01-12T11:14:19.479Z,84.00
2023-01-12T11:15:14.890Z,80.00
2023-01-12T11:16:13.953Z,80.00
2023-01-12T11:17:13.875Z,80.00
2023-01-12T11:18:13.860Z,84.00
2023-01-12T11:19:13.877Z,84.00
2023-01-12T11:20:13.866Z,96.00
2023-01-12T11:21:14.854Z,100.00
2023-01-12T11:22:13.827Z,100.00
2023-01-12T11:23:14.816Z,108.00
2023-01-12T11:24:13.833Z,104.00
2023-01-12T11:25:13.817Z,108.00
2023-01-12T11:26:14.796Z,116.00
2023-01-12T11:27:13.785Z,128.00
2023-01-12T11:28:13.770Z,124.00
2023-01-12T11:29:15.738Z,124.00
2023-01-12T11:30:13.739Z,116.00
2023-01-12T11:31:13.766Z,96.00
2023-01-12T11:32:13.751Z,88.00
2023-01-12T11:33:14.716Z,80.00
2023-01-12T11:34:13.700Z,72.00
2023-01-12T11:35:13.678Z,76.00
2023-01-12T11:36:13.665Z,76.00
2023-01-12T11:37:13.710Z,76.00
2023-01-12T11:38:13.701Z,80.00
2023-01-12T11:39:13.679Z,84.00
2023-01-12T11:40:13.666Z,92.00
2023-01-12T11:41:13.629Z,100.00
2023-01-12T11:42:13.602Z,108.00
2023-01-12T11:43:13.611Z,120.00
2023-01-12T11:44:13.596Z,120.00
2023-01-12T11:45:13.638Z,124.00
2023-01-12T11:46:13.600Z,120.00
2023-01-12T11:47:13.563Z,124.00
2023-01-12T11:48:13.546Z,124.00
2023-01-12T11:49:14.530Z,124.00
2023-01-12T11:50:13.525Z,120.00
2023-01-12T11:51:13.508Z,112.00
2023-01-12T11:52:13.501Z,108.00
2023-01-12T11:53:13.499Z,100.00
2023-01-12T11:54:13.486Z,88.00
2023-01-12T11:55:13.474Z,80.00
2023-01-12T11:56:13.498Z,76.00
2023-01-12T11:57:13.469Z,68.00
2023-01-12T11:58:13.447Z,64.00
2023-01-12T11:59:13.427Z,60.00
2023-01-12T12:00:14.400Z,56.00
2023-01-12T12:01:13.451Z,56.00
2023-01-12T12:02:14.449Z,56.00
2023-01-12T12:03:13.403Z,56.00
2023-01-12T12:04:13.363Z,56.00
2023-01-12T12:05:13.376Z,56.00
2023-01-12T12:06:14.332Z,60.00
2023-01-12T12:07:13.325Z,64.00
2023-01-12T12:08:13.373Z,68.00
2023-01-12T12:09:13.341Z,68.00
2023-01-12T12:10:14.308Z,72.00
2023-01-12T12:11:13.288Z,72.00
2023-01-12T12:12:13.309Z,76.00
2023-01-12T12:13:13.291Z,76.00
2023-01-12T12:14:14.259Z,80.00
2023-01-12T12:15:14.234Z,84.00
2023-01-12T12:16:14.342Z,88.00
2023-01-12T12:17:13.218Z,84.00
2023-01-12T12:18:13.231Z,88.00
2023-01-12T12:19:13.197Z,92.00
2023-01-12T12:20:13.198Z,88.00
2023-01-12T12:21:13.177Z,92.00
2023-01-12T12:22:13.150Z,92.00
2023-01-12T12:23:13.168Z,100.00
2023-01-12T12:24:13.173Z,96.00
2023-01-12T12:25:13.136Z,96.00
2023-01-12T12:26:14.140Z,96.00
2023-01-12T12:27:14.112Z,88.00
2023-01-12T12:28:13.109Z,88.00
2023-01-12T12:29:13.082Z,88.00
2023-01-12T12:30:13.069Z,84.00
2023-01-12T12:31:13.180Z,88.00
2023-01-12T12:32:13.046Z,84.00
2023-01-12T12:33:13.038Z,80.00
2023-01-12T12:34:13.063Z,84.00
2023-01-12T12:35:13.037Z,80.00
2023-01-12T12:36:13.004Z,80.00
2023-01-12T12:37:12.981Z,84.00
2023-01-12T12:38:12.990Z,84.00
2023-01-12T12:39:13.986Z,84.00
2023-01-12T12:40:13.088Z,84.00
2023-01-12T12:41:12.969Z,88.00
2023-01-12T12:42:13.052Z,88.00
2023-01-12T12:43:12.939Z,88.00
2023-01-12T12:44:12.950Z,92.00
2023-01-12T12:45:12.906Z,88.00
2023-01-12T12:46:12.952Z,80.00
2023-01-12T12:47:12.897Z,80.00
2023-01-12T12:48:12.931Z,88.00
2023-01-12T12:49:12.845Z,88.00
2023-01-12T12:50:13.853Z,88.00
2023-01-12T12:51:12.841Z,96.00
2023-01-12T12:52:12.841Z,100.00
2023-01-12T12:53:12.842Z,104.00
2023-01-12T12:54:12.808Z,100.00
2023-01-12T12:55:12.803Z,100.00
2023-01-12T12:56:12.784Z,96.00
2023-01-12T12:57:13.759Z,96.00
2023-01-12T12:58:13.801Z,92.00
2023-01-12T12:59:12.748Z,84.00
2023-01-12T13:00:12.873Z,88.00
2023-01-12T13:01:12.901Z,88.00
2023-01-12T13:02:12.740Z,88.00